Time;durP1;ratioP1;P1;durP2;ratioP2;P2;SDS_P1;SDS_P2;PMS_P1;PMS_P2;Temp;Humidity;BMP_temperature;BMP_pressure;BME280_temperature;BME280_humidity;BME280_pressure;Samples;Min_cycle;Max_cycle;Signal;HPM_P1;HPM_P2
2022/08/06 00:02:28;;;;;;;6.65;1.98;;;;;;;14.21;94.73;102484.75;5280498;28;20048;-67
2022/08/06 00:05:02;;;;;;;7.00;1.85;;;;;;;14.15;95.42;102486.00;5287148;28;20027;-68
2022/08/06 00:07:35;;;;;;;5.38;1.65;;;;;;;14.15;94.10;102472.00;5286783;28;20035;-68
2022/08/06 00:10:06;;;;;;;4.72;1.52;;;;;;;14.14;96.12;102491.41;5289894;28;20028;-70
2022/08/06 00:12:38;;;;;;;7.28;1.80;;;;;;;14.08;95.29;102488.25;5286530;28;20467;-68
2022/08/06 00:15:09;;;;;;;5.13;1.88;;;;;;;14.06;96.68;102489.34;5290144;28;20028;-69
2022/08/06 00:17:41;;;;;;;4.03;1.40;;;;;;;14.04;97.13;102485.97;5286595;28;20114;-69
2022/08/06 00:20:14;;;;;;;3.78;1.73;;;;;;;13.91;98.27;102488.66;5291187;28;20050;-71
2022/08/06 00:22:45;;;;;;;5.28;2.00;;;;;;;13.95;96.98;102495.38;5286082;28;20031;-68
2022/08/06 00:25:17;;;;;;;5.50;1.63;;;;;;;13.93;97.60;102491.19;5280567;28;20032;-67
2022/08/06 00:27:48;;;;;;;4.90;1.70;;;;;;;13.83;98.06;102498.91;5286037;28;20479;-67
2022/08/06 00:30:20;;;;;;;6.45;1.80;;;;;;;13.78;97.48;102501.03;5287133;28;20025;-68
2022/08/06 00:32:52;;;;;;;5.22;1.95;;;;;;;13.72;98.10;102502.31;5298270;28;20134;-68
2022/08/06 00:35:23;;;;;;;4.60;1.83;;;;;;;13.71;98.93;102510.31;5277078;28;20513;-70
2022/08/06 00:37:55;;;;;;;5.60;2.35;;;;;;;13.53;100.00;102509.84;5283322;28;20107;-67
2022/08/06 00:40:29;;;;;;;3.23;1.63;;;;;;;13.61;98.88;102505.72;5280415;28;20015;-68
2022/08/06 00:43:02;;;;;;;;;;;;;;;14.30;90.52;102499.84;5287105;28;20097;-69
2022/08/06 00:45:34;;;;;;;6.50;2.10;;;;;;;13.52;99.23;102500.25;5288650;28;20264;-68
2022/08/06 00:48:05;;;;;;;4.22;1.90;;;;;;;13.46;99.84;102505.97;5282368;28;20032;-68
2022/08/06 00:50:36;;;;;;;4.13;1.63;;;;;;;13.51;99.46;102509.09;5279946;28;20028;-70
2022/08/06 00:53:08;;;;;;;6.03;1.90;;;;;;;13.43;100.00;102509.66;5285796;28;20054;-68
2022/08/06 00:55:39;;;;;;;4.88;1.80;;;;;;;13.46;100.00;102512.06;5285988;28;20097;-69
2022/08/06 00:58:11;;;;;;;6.05;2.10;;;;;;;13.38;100.00;102520.50;5284472;28;20118;-68
2022/08/06 01:00:42;;;;;;;6.22;2.25;;;;;;;13.37;100.00;102513.56;5287662;28;20036;-68
2022/08/06 01:03:16;;;;;;;3.67;1.80;;;;;;;13.37;100.00;102520.59;5280016;28;20723;-68
2022/08/06 01:05:47;;;;;;;3.88;1.83;;;;;;;13.30;100.00;102522.00;5287645;28;20102;-69
2022/08/06 01:08:19;;;;;;;6.55;2.17;;;;;;;13.32;100.00;102528.81;5286691;28;20490;-68
2022/08/06 01:10:50;;;;;;;5.80;2.10;;;;;;;13.34;100.00;102534.84;5284899;28;20043;-68
2022/08/06 01:13:22;;;;;;;4.53;2.33;;;;;;;13.23;100.00;102531.25;5282855;28;20034;-68
2022/08/06 01:16:15;;;;;;;4.63;2.22;;;;;;;13.59;100.00;102539.22;5284482;28;20028;-68
2022/08/06 01:19:19;;;;;;;7.10;2.72;;;;;;;13.61;100.00;102544.38;5283652;28;20359;-68
2022/08/06 01:22:08;;;;;;;6.07;2.38;;;;;;;13.62;100.00;102543.44;5280846;28;20031;-69
2022/08/06 01:25:07;;;;;;;7.68;2.58;;;;;;;13.51;100.00;102545.97;5277655;28;20023;-68
2022/08/06 01:27:44;;;;;;;10.25;2.95;;;;;;;13.42;100.00;102541.38;5282310;28;20108;-69
2022/08/06 01:30:23;;;;;;;7.75;2.90;;;;;;;13.33;100.00;102545.47;5286228;28;20028;-69
2022/08/06 01:33:05;;;;;;;8.55;2.67;;;;;;;13.33;100.00;102546.31;5283975;28;20074;-69
2022/08/06 01:35:40;;;;;;;4.87;2.30;;;;;;;13.23;100.00;102544.41;5283077;28;20923;-68
2022/08/06 01:38:21;;;;;;;6.18;2.42;;;;;;;13.25;100.00;102543.34;5284990;28;20376;-68
2022/08/06 01:40:54;;;;;;;5.60;2.38;;;;;;;13.15;100.00;102537.03;5286064;28;20452;-68
2022/08/06 01:43:27;;;;;;;6.82;2.63;;;;;;;13.10;100.00;102537.31;5283432;28;20081;-68
2022/08/06 01:46:00;;;;;;;6.63;2.35;;;;;;;13.07;100.00;102541.97;5280433;28;20048;-68
2022/08/06 01:48:36;;;;;;;6.65;2.40;;;;;;;13.11;100.00;102544.28;5281802;28;20099;-68
2022/08/06 01:51:09;;;;;;;11.13;2.85;;;;;;;13.02;100.00;102549.31;5279133;28;20029;-69
2022/08/06 01:53:41;;;;;;;7.35;2.38;;;;;;;12.99;100.00;102550.38;5285361;28;20031;-67
2022/08/06 01:56:13;;;;;;;8.10;2.92;;;;;;;12.96;100.00;102544.50;5285823;28;20043;-68
2022/08/06 01:58:49;;;;;;;6.60;2.70;;;;;;;12.89;100.00;102533.53;5280538;28;20035;-70
2022/08/06 02:01:23;;;;;;;6.25;2.60;;;;;;;13.02;100.00;102557.22;5283907;28;20811;-67
2022/08/06 02:03:58;;;;;;;6.18;2.65;;;;;;;12.97;100.00;102556.69;5280155;28;20035;-68
2022/08/06 02:06:37;;;;;;;6.95;2.53;;;;;;;13.00;100.00;102552.06;5287411;28;20496;-68
2022/08/06 02:09:13;;;;;;;8.15;2.75;;;;;;;13.02;100.00;102547.53;5279274;28;20199;-69
2022/08/06 02:11:53;;;;;;;6.93;2.85;;;;;;;13.01;100.00;102552.91;5278559;28;20101;-69
2022/08/06 02:14:25;;;;;;;7.07;3.30;;;;;;;12.92;100.00;102559.66;5282463;28;20078;-68
2022/08/06 02:17:00;;;;;;;7.50;2.90;;;;;;;12.93;100.00;102550.78;5290207;28;20388;-70
2022/08/06 02:19:33;;;;;;;9.52;3.00;;;;;;;12.84;100.00;102547.00;5285056;28;20023;-68
2022/08/06 02:22:05;;;;;;;6.85;3.00;;;;;;;12.89;100.00;102554.59;5278143;28;20517;-69
2022/08/06 02:24:38;;;;;;;7.25;3.45;;;;;;;12.88;100.00;102548.47;5285171;28;20032;-68
2022/08/06 02:27:12;;;;;;;7.50;3.30;;;;;;;12.94;100.00;102556.91;5285743;28;20059;-68
2022/08/06 02:29:44;;;;;;;8.48;3.00;;;;;;;12.82;100.00;102554.16;5282303;28;20107;-67
2022/08/06 02:32:16;;;;;;;6.85;2.90;;;;;;;12.81;100.00;102555.09;5283484;28;20043;-67
2022/08/06 02:34:48;;;;;;;7.57;3.22;;;;;;;12.81;100.00;102557.72;5284942;28;20032;-68
2022/08/06 02:37:25;;;;;;;7.22;2.65;;;;;;;12.86;100.00;102554.78;5284154;28;20019;-68
2022/08/06 02:40:08;;;;;;;8.00;2.88;;;;;;;12.80;100.00;102545.50;5281817;22;20052;-69
2022/08/06 02:42:48;;;;;;;7.30;3.00;;;;;;;12.87;100.00;102552.03;5263964;28;20415;-70
2022/08/06 02:45:27;;;;;;;6.35;2.63;;;;;;;12.80;100.00;102552.56;5266580;28;20029;-71
2022/08/06 02:48:08;;;;;;;6.40;2.45;;;;;;;12.77;100.00;102547.53;5275259;28;20025;-71
2022/08/06 02:50:43;;;;;;;6.03;2.70;;;;;;;12.71;100.00;102546.13;5265747;28;20066;-71
2022/08/06 02:53:53;;;;;;;6.00;2.60;;;;;;;12.88;100.00;102559.00;5268084;28;20028;-71
2022/08/06 02:56:25;;;;;;;6.38;3.10;;;;;;;12.64;100.00;102556.19;5267258;28;20600;-71
2022/08/06 02:59:00;;;;;;;7.88;3.10;;;;;;;12.69;100.00;102547.16;5263367;28;20066;-71
2022/08/06 03:01:36;;;;;;;5.15;2.60;;;;;;;12.46;100.00;102554.78;5266499;28;20020;-71
2022/08/06 03:04:08;;;;;;;7.40;3.08;;;;;;;12.53;100.00;102558.69;5265572;28;20032;-71
2022/08/06 03:06:45;;;;;;;6.00;2.45;;;;;;;12.52;100.00;102543.88;5269188;28;20437;-71
2022/08/06 03:09:18;;;;;;;5.32;2.63;;;;;;;12.45;100.00;102557.53;5269247;28;20033;-71
2022/08/06 03:11:50;;;;;;;5.32;2.92;;;;;;;12.46;100.00;102567.09;5261704;28;20083;-72
2022/08/06 03:14:24;;;;;;;5.45;2.70;;;;;;;12.43;100.00;102557.63;5268038;28;20052;-71
2022/08/06 03:16:57;;;;;;;3.63;2.53;;;;;;;12.33;100.00;102554.75;5266263;28;20882;-71
2022/08/06 03:19:30;;;;;;;4.25;2.60;;;;;;;12.43;100.00;102556.81;5264199;28;20099;-71
2022/08/06 03:22:02;;;;;;;7.70;2.88;;;;;;;12.41;100.00;102559.50;5262736;28;20065;-69
2022/08/06 03:24:34;;;;;;;5.35;2.45;;;;;;;12.37;100.00;102566.75;5267086;28;20063;-69
2022/08/06 03:27:07;;;;;;;4.03;2.00;;;;;;;12.35;100.00;102567.78;5266810;28;20061;-69
2022/08/06 03:29:40;;;;;;;5.82;2.40;;;;;;;12.32;100.00;102570.63;5265354;28;20027;-69
2022/08/06 03:32:13;;;;;;;4.55;2.30;;;;;;;12.38;100.00;102573.69;5267376;28;20037;-70
2022/08/06 03:34:45;;;;;;;4.65;2.40;;;;;;;12.32;100.00;102574.09;5262686;28;20036;-69
2022/08/06 03:37:19;;;;;;;4.35;2.40;;;;;;;12.32;100.00;102576.72;5269438;28;20033;-72
2022/08/06 03:39:53;;;;;;;5.28;2.30;;;;;;;12.30;100.00;102578.59;5269110;28;20079;-72
2022/08/06 03:42:25;;;;;;;4.78;2.10;;;;;;;12.31;100.00;102584.69;5267562;28;20028;-72
2022/08/06 03:44:56;;;;;;;6.35;2.40;;;;;;;12.26;100.00;102585.00;5264294;28;20091;-69
2022/08/06 03:47:32;;;;;;;3.65;2.00;;;;;;;12.28;100.00;102580.50;5265226;28;20028;-69
2022/08/06 03:50:21;;;;;;;6.45;2.30;;;;;;;12.50;100.00;102586.97;5257794;28;20024;-69
2022/08/06 03:53:00;;;;;;;5.60;2.58;;;;;;;12.38;100.00;102586.00;5264348;28;20056;-69
2022/08/06 03:55:35;;;;;;;5.20;2.28;;;;;;;12.17;100.00;102588.22;5260979;28;20060;-69
2022/08/06 03:58:10;;;;;;;5.47;2.08;;;;;;;12.22;100.00;102591.38;5265909;28;20081;-69
2022/08/06 04:00:55;;;;;;;5.22;2.20;;;;;;;12.21;100.00;102597.59;5265170;28;20063;-69
2022/08/06 04:03:27;;;;;;;4.18;2.05;;;;;;;12.08;100.00;102594.88;5263904;28;20703;-69
2022/08/06 04:05:58;;;;;;;5.85;2.40;;;;;;;12.06;100.00;102601.19;5266107;28;20483;-72
2022/08/06 04:08:33;;;;;;;5.00;2.20;;;;;;;12.16;100.00;102600.53;5269390;28;20090;-69
2022/08/06 04:11:06;;;;;;;4.32;1.98;;;;;;;12.09;100.00;102601.00;5265132;28;20017;-69
2022/08/06 04:13:39;;;;;;;4.57;2.15;;;;;;;12.07;100.00;102608.97;5266195;28;20411;-69
2022/08/06 04:16:15;;;;;;;5.68;2.58;;;;;;;12.16;100.00;102602.31;5263353;28;20025;-70
2022/08/06 04:18:48;;;;;;;6.07;2.63;;;;;;;12.08;100.00;102609.81;5264091;28;20455;-70
2022/08/06 04:21:23;;;;;;;6.60;2.83;;;;;;;12.09;100.00;102611.53;5277903;28;20028;-70
2022/08/06 04:23:54;;;;;;;8.32;2.80;;;;;;;12.01;100.00;102612.00;5263083;28;20029;-70
2022/08/06 04:26:28;;;;;;;4.88;2.60;;;;;;;12.11;100.00;102620.13;5262780;28;20450;-70
2022/08/06 04:29:01;;;;;;;5.80;2.72;;;;;;;12.03;100.00;102612.72;5277345;28;20036;-70
2022/08/06 04:31:33;;;;;;;4.72;2.53;;;;;;;12.10;100.00;102618.44;5262737;28;20127;-70
2022/08/06 04:34:06;;;;;;;4.30;2.45;;;;;;;12.12;100.00;102619.19;5264114;28;20029;-70
2022/08/06 04:36:38;;;;;;;3.97;2.40;;;;;;;12.08;100.00;102618.53;5264900;28;20024;-70
2022/08/06 04:39:09;;;;;;;5.55;2.67;;;;;;;12.14;100.00;102618.16;5264134;28;20040;-70
2022/08/06 04:41:41;;;;;;;4.82;2.30;;;;;;;12.14;100.00;102620.78;5261534;28;20080;-70
2022/08/06 04:44:13;;;;;;;5.47;2.60;;;;;;;12.09;100.00;102620.25;5264284;28;20107;-69
2022/08/06 04:46:48;;;;;;;8.02;2.90;;;;;;;12.11;100.00;102623.59;5263333;28;20032;-70
2022/08/06 04:49:20;;;;;;;5.63;2.55;;;;;;;12.09;100.00;102624.66;5265600;28;20034;-70
2022/08/06 04:51:51;;;;;;;5.35;2.47;;;;;;;12.10;100.00;102624.53;5264696;28;20515;-70
2022/08/06 04:54:22;;;;;;;8.00;2.85;;;;;;;12.11;100.00;102626.22;5263290;28;20032;-70
2022/08/06 04:56:54;;;;;;;4.78;2.53;;;;;;;12.14;100.00;102628.66;5266958;28;20040;-70
2022/08/06 04:59:25;;;;;;;6.90;2.72;;;;;;;12.15;100.00;102638.22;5265303;28;20441;-70
2022/08/06 05:01:56;;;;;;;7.05;3.00;;;;;;;12.07;100.00;102634.41;5263865;28;20031;-69
2022/08/06 05:04:29;;;;;;;6.88;2.88;;;;;;;12.09;100.00;102635.16;5260972;28;20039;-69
2022/08/06 05:07:03;;;;;;;4.93;3.00;;;;;;;12.18;100.00;102634.56;5263911;28;20047;-70
2022/08/06 05:09:35;;;;;;;4.43;2.55;;;;;;;12.12;100.00;102633.19;5265643;28;20020;-69
2022/08/06 05:12:18;;;;;;;6.25;2.80;;;;;;;12.37;100.00;102642.13;5264355;28;20118;-70
2022/08/06 05:15:07;;;;;;;5.15;2.70;;;;;;;12.35;100.00;102652.75;5264729;28;20028;-70
2022/08/06 05:17:44;;;;;;;4.60;2.78;;;;;;;12.38;100.00;102647.28;5262065;28;20027;-70
2022/08/06 05:20:20;;;;;;;4.47;2.80;;;;;;;12.44;100.00;102655.75;5272496;28;20107;-70
2022/08/06 05:22:55;;;;;;;7.57;3.05;;;;;;;12.47;100.00;102652.91;5262746;28;20044;-70
2022/08/06 05:25:26;;;;;;;5.05;2.95;;;;;;;12.55;100.00;102661.16;5262044;28;20372;-70
2022/08/06 05:27:59;;;;;;;5.32;2.90;;;;;;;12.63;100.00;102654.44;5262831;28;20052;-70
2022/08/06 05:30:31;;;;;;;6.40;3.22;;;;;;;12.69;100.00;102642.72;5261002;28;20028;-70
2022/08/06 05:33:02;;;;;;;6.47;3.20;;;;;;;12.79;100.00;102654.28;5281093;28;20511;-70
2022/08/06 05:35:34;;;;;;;5.22;3.15;;;;;;;12.84;100.00;102657.47;5257573;28;20028;-69
2022/08/06 05:38:06;;;;;;;7.28;2.88;;;;;;;12.89;100.00;102659.81;5264891;28;20839;-70
2022/08/06 05:40:39;;;;;;;6.88;3.13;;;;;;;12.94;100.00;102662.97;5262006;28;20090;-70
2022/08/06 05:43:10;;;;;;;4.88;2.83;;;;;;;13.07;100.00;102670.91;5259603;28;20484;-70
2022/08/06 05:45:44;;;;;;;7.78;3.42;;;;;;;13.12;100.00;102666.19;5261065;28;20063;-70
2022/08/06 05:48:18;;;;;;;9.18;3.88;;;;;;;13.18;100.00;102667.53;5261887;28;20105;-71
2022/08/06 05:50:55;;;;;;;5.35;3.42;;;;;;;13.28;100.00;102661.59;5269785;28;20112;-71
2022/08/06 05:53:40;;;;;;;10.13;3.88;;;;;;;13.39;100.00;102666.97;5260131;28;20044;-71
2022/08/06 05:56:15;;;;;;;11.85;4.13;;;;;;;13.43;100.00;102672.03;5263878;28;20564;-71
2022/08/06 05:58:55;;;;;;;9.18;4.30;;;;;;;13.55;100.00;102661.50;5263892;28;20068;-71
2022/08/06 06:01:26;;;;;;;10.15;4.32;;;;;;;13.58;100.00;102676.28;5260580;28;20025;-72
2022/08/06 06:03:59;;;;;;;14.95;4.32;;;;;;;13.67;100.00;102673.00;5256548;28;20097;-71
2022/08/06 06:06:30;;;;;;;9.75;4.00;;;;;;;13.80;100.00;102683.53;5254070;28;20016;-71
2022/08/06 06:09:02;;;;;;;9.73;3.70;;;;;;;13.86;100.00;102683.97;5265036;28;20368;-71
2022/08/06 06:11:34;;;;;;;10.90;4.35;;;;;;;13.96;100.00;102681.53;5264959;28;20417;-71
2022/08/06 06:14:23;;;;;;;7.72;3.60;;;;;;;14.23;100.00;102673.47;5269649;28;20068;-71
2022/08/06 06:17:26;;;;;;;6.80;3.20;;;;;;;14.46;100.00;102678.88;5267475;28;20021;-71
2022/08/06 06:20:11;;;;;;;8.30;3.88;;;;;;;14.54;100.00;102679.19;5261047;28;20035;-71
2022/08/06 06:22:59;;;;;;;7.72;3.30;;;;;;;14.65;100.00;102687.16;5264979;28;20047;-71
2022/08/06 06:25:36;;;;;;;6.20;3.70;;;;;;;14.63;100.00;102677.69;5269965;28;20052;-72
2022/08/06 06:28:26;;;;;;;5.45;3.17;;;;;;;14.69;100.00;102683.34;5266310;28;20036;-71
2022/08/06 06:31:07;;;;;;;6.00;2.88;;;;;;;15.00;100.00;102683.72;5266636;28;20074;-71
2022/08/06 06:33:52;;;;;;;8.52;3.08;;;;;;;15.19;100.00;102681.44;5268221;28;20067;-71
2022/08/06 06:36:34;;;;;;;5.32;3.15;;;;;;;15.29;100.00;102685.03;5267417;28;20086;-71
2022/08/06 06:39:35;;;;;;;8.55;3.20;;;;;;;15.60;100.00;102677.41;5263038;28;20036;-72
2022/08/06 06:42:18;;;;;;;5.97;2.80;;;;;;;15.67;100.00;102688.38;5261384;28;20726;-72
2022/08/06 06:44:58;;;;;;;5.47;2.72;;;;;;;15.73;100.00;102690.56;5268617;28;20463;-72
2022/08/06 06:47:48;;;;;;;5.28;2.50;;;;;;;15.84;100.00;102689.75;5267533;28;20048;-72
2022/08/06 06:50:25;;;;;;;5.05;2.10;;;;;;;16.00;100.00;102691.06;5265707;28;20048;-72
2022/08/06 06:52:57;;;;;;;6.20;2.47;;;;;;;16.10;100.00;102687.66;5267913;28;20036;-71
2022/08/06 06:55:33;;;;;;;4.72;1.83;;;;;;;16.27;100.00;102692.47;5263676;28;20031;-72
2022/08/06 06:58:12;;;;;;;7.20;1.80;;;;;;;16.50;100.00;102696.75;5266683;28;20500;-72
2022/08/06 07:00:43;;;;;;;6.47;2.20;;;;;;;16.55;100.00;102691.09;5265485;28;20031;-72
2022/08/06 07:03:17;;;;;;;5.10;1.80;;;;;;;16.75;100.00;102689.53;5284095;28;20024;-72
2022/08/06 07:05:49;;;;;;;6.07;1.88;;;;;;;16.94;100.00;102697.63;5263183;28;21021;-72
2022/08/06 07:08:22;;;;;;;6.40;2.20;;;;;;;17.03;100.00;102694.22;5265739;28;20025;-72
2022/08/06 07:10:55;;;;;;;8.30;2.10;;;;;;;17.26;100.00;102694.94;5255429;28;20112;-72
2022/08/06 07:13:29;;;;;;;3.90;1.40;;;;;;;17.40;100.00;102699.09;5265084;28;20045;-72
2022/08/06 07:16:02;;;;;;;6.68;1.83;;;;;;;17.49;100.00;102697.44;5270118;28;20021;-72
2022/08/06 07:18:35;;;;;;;6.80;2.03;;;;;;;17.81;99.94;102697.41;5268136;28;20067;-72
2022/08/06 07:21:07;;;;;;;5.28;1.63;;;;;;;17.89;90.85;102702.88;5262664;28;20376;-76
2022/08/06 07:23:39;;;;;;;5.35;1.48;;;;;;;18.07;89.33;102711.06;5265848;28;20074;-73
2022/08/06 07:26:14;;;;;;;3.95;1.17;;;;;;;18.12;85.16;102713.28;5264591;28;20033;-72
2022/08/06 07:28:47;;;;;;;5.63;1.60;;;;;;;18.24;83.65;102713.03;5265205;28;20090;-73
2022/08/06 07:31:23;;;;;;;4.40;1.20;;;;;;;18.42;81.73;102704.44;5263345;28;20062;-72
2022/08/06 07:33:56;;;;;;;4.78;1.05;;;;;;;18.61;82.91;102716.91;5264107;28;20112;-73
2022/08/06 07:36:32;;;;;;;4.75;1.15;;;;;;;18.74;78.00;102722.00;5264097;28;20037;-73
2022/08/06 07:39:07;;;;;;;4.57;0.93;;;;;;;18.82;78.26;102722.13;5265547;28;20045;-73
2022/08/06 07:41:40;;;;;;;5.90;0.90;;;;;;;18.95;77.70;102722.72;5267952;28;20107;-73
2022/08/06 07:44:12;;;;;;;;;;;;;;;19.56;78.55;102722.38;5262115;28;20029;-72
2022/08/06 07:46:49;;;;;;;3.72;0.90;;;;;;;19.05;71.76;102728.00;5261949;28;20403;-73
2022/08/06 07:49:24;;;;;;;6.68;1.20;;;;;;;19.16;73.03;102720.75;5262061;28;20108;-72
2022/08/06 07:51:57;;;;;;;2.50;0.80;;;;;;;19.16;68.63;102725.22;5258404;28;20036;-72
2022/08/06 07:54:30;;;;;;;5.68;0.90;;;;;;;19.36;73.31;102720.75;5259035;28;20021;-72
2022/08/06 07:57:02;;;;;;;4.68;0.95;;;;;;;19.51;70.72;102729.94;5261484;28;20085;-72
2022/08/06 07:59:34;;;;;;;5.68;1.40;;;;;;;19.60;69.33;102726.41;5262364;28;20020;-72
2022/08/06 08:02:07;;;;;;;3.50;0.93;;;;;;;19.60;62.76;102733.56;5264134;28;20107;-73
2022/08/06 08:07:31;;;;;;;4.07;1.02;;;;;;;19.69;66.19;102727.41;5265246;28;20040;-72
2022/08/06 08:10:03;;;;;;;5.82;1.30;;;;;;;19.88;64.72;102723.84;5265402;28;20028;-73
2022/08/06 08:12:36;;;;;;;6.17;1.33;;;;;;;19.97;66.02;102733.63;5263997;28;20048;-73
2022/08/06 08:15:08;;;;;;;4.00;1.10;;;;;;;20.09;64.40;102723.63;5264611;28;20024;-72
2022/08/06 08:17:39;;;;;;;5.70;1.67;;;;;;;20.30;65.90;102732.19;5263593;28;20051;-72
2022/08/06 08:20:12;;;;;;;4.43;0.90;;;;;;;20.30;63.25;102736.69;5263135;28;20036;-73
2022/08/06 08:22:44;;;;;;;;;;;;;;;21.11;63.41;102734.06;5264917;28;20079;-72
2022/08/06 08:25:17;;;;;;;2.95;0.85;;;;;;;20.76;61.72;102732.22;5267530;28;19913;-73
2022/08/06 08:27:51;;;;;;;3.55;0.80;;;;;;;20.79;58.58;102737.25;5265389;28;20036;-72
2022/08/06 08:30:22;;;;;;;4.50;0.95;;;;;;;20.93;58.82;102731.41;5261502;28;20039;-73
2022/08/06 08:32:54;;;;;;;3.73;0.70;;;;;;;21.04;57.25;102730.34;5265331;28;20045;-73
2022/08/06 08:35:25;;;;;;;3.53;0.83;;;;;;;21.08;56.77;102729.88;5263290;28;20511;-72
2022/08/06 08:37:56;;;;;;;3.57;1.10;;;;;;;21.23;55.94;102724.00;5266571;28;20025;-72
2022/08/06 08:40:29;;;;;;;5.47;1.07;;;;;;;21.14;54.96;102729.28;5261098;28;20033;-73
2022/08/06 08:43:02;;;;;;;4.55;0.85;;;;;;;20.85;56.11;102734.00;5258754;28;20380;-74
2022/08/06 08:45:34;;;;;;;2.33;0.68;;;;;;;20.92;55.72;102731.56;5264661;28;20881;-73
2022/08/06 08:48:08;;;;;;;5.03;1.08;;;;;;;21.06;55.15;102729.22;5258325;28;20037;-73
2022/08/06 08:50:42;;;;;;;4.40;1.25;;;;;;;20.91;52.36;102744.06;5260158;28;20024;-73
2022/08/06 08:53:20;;;;;;;4.32;0.80;;;;;;;21.19;57.83;102733.31;5261782;28;20089;-73
2022/08/06 08:55:52;;;;;;;18.50;1.40;;;;;;;21.32;53.59;102733.72;5264139;28;20029;-73
2022/08/06 08:58:23;;;;;;;7.05;0.77;;;;;;;21.62;54.61;102735.97;5267258;28;20043;-73
2022/08/06 09:00:55;;;;;;;3.07;0.70;;;;;;;21.62;52.54;102740.47;5256565;28;20033;-73
2022/08/06 09:03:27;;;;;;;3.97;0.70;;;;;;;21.73;50.54;102736.72;5257898;28;20029;-73
2022/08/06 09:05:58;;;;;;;3.47;0.77;;;;;;;21.74;46.56;102741.88;5264769;28;20502;-72
2022/08/06 09:08:31;;;;;;;4.17;0.70;;;;;;;21.85;48.40;102746.13;5265722;28;20132;-73
2022/08/06 09:11:04;;;;;;;1.55;0.50;;;;;;;22.14;51.08;102743.13;5263428;28;20119;-73
2022/08/06 09:13:35;;;;;;;;;;;;;;;23.02;51.56;102746.22;5262689;28;20037;-73
2022/08/06 09:16:07;;;;;;;4.57;1.00;;;;;;;22.64;46.93;102746.81;5264342;28;19931;-73
2022/08/06 09:18:38;;;;;;;3.07;0.80;;;;;;;22.95;47.82;102750.53;5257709;28;20039;-73
2022/08/06 09:21:09;;;;;;;3.50;1.00;;;;;;;23.16;49.31;102752.75;5257117;28;20481;-73
2022/08/06 09:23:42;;;;;;;1.40;0.70;;;;;;;23.24;45.32;102749.22;5261794;28;20047;-74
2022/08/06 09:26:13;;;;;;;2.58;0.70;;;;;;;23.10;41.32;102752.56;5255952;28;20033;-76
2022/08/06 09:28:44;;;;;;;5.33;0.70;;;;;;;23.21;42.19;102746.88;5261419;28;20028;-74
2022/08/06 09:31:18;;;;;;;3.70;0.80;;;;;;;23.25;43.66;102750.91;5255499;28;20505;-73
2022/08/06 09:34:02;;;;;;;1.63;0.47;;;;;;;23.54;43.33;102745.84;5257022;28;20075;-73
2022/08/06 09:36:45;;;;;;;3.67;1.00;;;;;;;23.73;43.75;102755.38;5258287;28;20041;-73
2022/08/06 09:39:16;;;;;;;3.80;0.70;;;;;;;23.51;41.45;102756.91;5261777;28;20041;-74
2022/08/06 09:41:49;;;;;;;2.97;0.83;;;;;;;23.43;40.60;102751.56;5261510;28;20033;-74
2022/08/06 09:44:20;;;;;;;4.28;0.90;;;;;;;23.35;42.69;102748.91;5266567;28;20637;-74
2022/08/06 09:46:53;;;;;;;2.47;0.70;;;;;;;23.52;42.27;102758.59;5254674;28;20094;-74
2022/08/06 09:49:24;;;;;;;3.05;0.60;;;;;;;23.26;41.88;102763.25;5267679;28;20020;-74
2022/08/06 09:52:16;;;;;;;4.03;0.93;;;;;;;23.57;42.08;102762.59;5268007;28;20094;-74
2022/08/06 09:54:48;;;;;;;2.95;0.70;;;;;;;23.15;40.33;102767.13;5268228;28;20031;-74
2022/08/06 09:57:22;;;;;;;2.13;0.60;;;;;;;23.45;40.72;102757.59;5262571;28;20474;-74
2022/08/06 09:59:53;;;;;;;3.20;1.10;;;;;;;23.34;39.47;102767.81;5267611;28;20449;-74
2022/08/06 10:02:24;;;;;;;2.60;0.63;;;;;;;23.53;38.58;102754.91;5265261;28;20025;-74
2022/08/06 10:05:07;;;;;;;1.67;0.53;;;;;;;23.90;41.15;102756.16;5264412;28;20033;-74
2022/08/06 10:07:39;;;;;;;1.40;0.50;;;;;;;23.85;39.13;102758.53;5263580;28;20028;-74
2022/08/06 10:10:10;;;;;;;3.72;0.88;;;;;;;23.86;38.21;102754.00;5261450;28;20625;-74
2022/08/06 10:12:42;;;;;;;2.33;0.70;;;;;;;23.84;40.12;102748.84;5266663;28;20081;-74
2022/08/06 10:15:29;;;;;;;4.30;0.73;;;;;;;24.05;39.95;102750.94;5267731;28;20485;-73
2022/08/06 10:18:00;;;;;;;2.80;0.60;;;;;;;23.71;40.06;102741.31;5268466;28;20029;-73
2022/08/06 10:20:31;;;;;;;2.83;0.70;;;;;;;23.84;36.69;102751.53;5256699;28;20027;-72
2022/08/06 10:23:08;;;;;;;2.90;0.93;;;;;;;23.92;37.73;102740.78;5262448;28;20487;-73
2022/08/06 10:25:39;;;;;;;2.83;0.70;;;;;;;24.08;37.38;102739.88;5264356;28;20044;-73
2022/08/06 10:28:11;;;;;;;5.63;1.20;;;;;;;23.98;37.02;102745.47;5262632;28;20028;-73
2022/08/06 10:30:42;;;;;;;3.63;1.00;;;;;;;23.87;38.39;102743.16;5261576;28;20067;-72
2022/08/06 10:33:14;;;;;;;3.47;0.80;;;;;;;24.04;37.21;102726.00;5254797;28;20025;-74
2022/08/06 10:35:47;;;;;;;2.70;0.70;;;;;;;24.35;39.66;102727.03;5262848;28;20071;-73
2022/08/06 10:38:22;;;;;;;3.45;0.80;;;;;;;24.24;36.77;102728.25;5258542;28;20045;-73
2022/08/06 10:40:57;;;;;;;2.40;0.80;;;;;;;23.92;38.29;102731.91;5261518;28;20111;-72
2022/08/06 10:43:29;;;;;;;2.13;0.70;;;;;;;23.54;38.90;102729.81;5260719;28;20028;-73
2022/08/06 10:46:04;;;;;;;2.53;0.70;;;;;;;23.40;39.28;102738.50;5266603;28;20379;-73
2022/08/06 10:48:37;;;;;;;3.50;0.80;;;;;;;23.51;37.25;102735.50;5263328;28;20025;-73
2022/08/06 10:51:10;;;;;;;2.33;0.70;;;;;;;23.71;37.25;102725.28;5264915;28;20032;-73
2022/08/06 10:53:44;;;;;;;2.67;0.50;;;;;;;23.77;37.61;102708.53;5267459;28;20085;-73
2022/08/06 10:56:17;;;;;;;1.70;0.60;;;;;;;24.08;36.59;102723.81;5265864;28;20116;-72
2022/08/06 10:58:50;;;;;;;2.97;0.75;;;;;;;23.93;38.03;102712.16;5268463;28;20032;-72
2022/08/06 11:01:32;;;;;;;1.73;0.50;;;;;;;24.41;36.04;102721.03;5263176;28;20059;-71
2022/08/06 11:04:17;;;;;;;3.03;0.77;;;;;;;24.33;36.38;102719.19;5263964;28;20033;-71
2022/08/06 11:07:01;;;;;;;2.53;0.68;;;;;;;24.04;36.33;102714.47;5267513;28;20032;-71
2022/08/06 11:09:42;;;;;;;1.55;0.55;;;;;;;23.78;35.39;102730.78;5264862;28;20028;-71
2022/08/06 11:12:35;;;;;;;2.13;0.60;;;;;;;24.17;36.65;102721.94;5266899;28;20377;-71
2022/08/06 11:15:07;;;;;;;3.42;0.68;;;;;;;24.21;35.14;102718.75;5263739;28;20116;-70
2022/08/06 11:17:47;;;;;;;2.70;0.55;;;;;;;24.28;35.71;102710.81;5265027;28;20107;-71
2022/08/06 11:20:39;;;;;;;1.40;0.50;;;;;;;24.87;35.33;102716.50;5266319;28;20032;-71
2022/08/06 11:23:11;;;;;;;1.88;0.70;;;;;;;24.57;33.92;102712.88;5267311;28;20032;-71
2022/08/06 11:25:44;;;;;;;2.90;0.70;;;;;;;24.52;34.15;102707.22;5266528;28;20039;-71
2022/08/06 11:28:18;;;;;;;1.40;0.60;;;;;;;24.82;34.68;102710.03;5258541;28;20041;-71
2022/08/06 11:30:50;;;;;;;3.60;0.68;;;;;;;24.74;35.49;102708.25;5254012;28;20024;-72
2022/08/06 11:33:44;;;;;;;1.90;0.60;;;;;;;25.09;34.22;102711.31;5250452;28;20680;-73
2022/08/06 11:36:26;;;;;;;2.67;0.55;;;;;;;24.93;32.51;102709.63;5252832;28;20085;-73
2022/08/06 11:38:58;;;;;;;1.60;0.50;;;;;;;24.95;32.74;102708.41;5252065;28;20052;-75
2022/08/06 11:41:32;;;;;;;1.55;0.68;;;;;;;25.18;32.23;102700.34;5251463;28;20041;-73
2022/08/06 11:44:05;;;;;;;1.40;0.32;;;;;;;25.02;32.15;102707.69;5252006;28;20059;-71
2022/08/06 11:46:40;;;;;;;2.13;0.60;;;;;;;25.08;31.63;102705.13;5246158;28;20033;-71
2022/08/06 11:49:18;;;;;;;1.88;0.60;;;;;;;25.27;31.76;102700.28;5250552;28;20589;-70
2022/08/06 11:51:57;;;;;;;1.25;0.55;;;;;;;25.23;31.59;102702.50;5249247;28;20025;-70
2022/08/06 11:54:43;;;;;;;3.08;0.70;;;;;;;25.26;31.85;102699.44;5249715;28;20037;-70
2022/08/06 11:57:14;;;;;;;0.77;0.35;;;;;;;24.80;31.09;102696.78;5249649;28;20036;-69
2022/08/06 11:59:55;;;;;;;2.27;0.73;;;;;;;25.26;32.40;102694.06;5250203;28;20033;-68
2022/08/06 12:02:41;;;;;;;2.72;0.70;;;;;;;25.46;32.31;102695.22;5250425;28;20541;-68